createdAt,value
2022-10-08T00:04:27.542Z,6.25
2022-10-08T00:09:32.199Z,6.50
2022-10-08T00:14:35.473Z,5.75
2022-10-08T00:19:38.793Z,7.32
2022-10-08T00:24:43.864Z,4.55
2022-10-08T00:29:47.172Z,5.85
2022-10-08T00:34:50.454Z,5.90
2022-10-08T00:39:55.081Z,6.18
2022-10-08T00:45:00.300Z,6.45
2022-10-08T00:50:07.951Z,6.82
2022-10-08T00:55:15.308Z,5.25
2022-10-08T01:00:20.945Z,5.65
2022-10-08T01:05:31.580Z,6.55
2022-10-08T01:10:44.677Z,5.30
2022-10-08T01:15:58.705Z,5.32
2022-10-08T01:21:10.095Z,6.00
2022-10-08T01:26:34.525Z,5.93
2022-10-08T01:31:45.075Z,6.13
2022-10-08T01:36:51.596Z,5.53
2022-10-08T01:41:57.173Z,5.60
2022-10-08T01:47:07.213Z,4.70
2022-10-08T01:52:15.323Z,6.00
2022-10-08T01:57:18.803Z,6.50
2022-10-08T02:02:25.498Z,5.32
2022-10-08T02:07:32.122Z,6.85
2022-10-08T02:12:35.645Z,6.95
2022-10-08T02:17:48.120Z,5.28
2022-10-08T02:22:58.894Z,4.95
2022-10-08T02:28:10.742Z,5.78
2022-10-08T02:33:22.686Z,5.18
2022-10-08T02:38:33.087Z,6.13
2022-10-08T02:43:41.491Z,5.85
2022-10-08T02:48:49.675Z,4.80
2022-10-08T02:53:53.361Z,5.85
2022-10-08T02:58:57.199Z,4.38
2022-10-08T03:04:06.293Z,5.82
2022-10-08T03:09:13.584Z,5.22
2022-10-08T03:14:20.635Z,5.70
2022-10-08T03:19:25.372Z,7.20
2022-10-08T03:24:28.648Z,9.20
2022-10-08T03:29:31.944Z,9.02
2022-10-08T03:34:37.002Z,9.82
2022-10-08T03:39:40.419Z,8.15
2022-10-08T03:44:43.872Z,9.98
2022-10-08T03:49:48.468Z,8.55
2022-10-08T03:54:51.683Z,9.68
2022-10-08T03:59:55.001Z,10.75
2022-10-08T04:04:59.624Z,10.10
2022-10-08T04:10:03.250Z,10.68
2022-10-08T04:15:07.906Z,10.27
2022-10-08T04:20:12.803Z,9.65
2022-10-08T04:25:16.159Z,10.88
2022-10-08T04:30:19.359Z,9.93
2022-10-08T04:35:24.085Z,11.32
2022-10-08T04:40:27.296Z,10.10
2022-10-08T04:45:30.533Z,8.40
2022-10-08T04:50:35.217Z,8.50
2022-10-08T04:55:38.419Z,10.02
2022-10-08T05:00:41.645Z,9.50
2022-10-08T05:05:47.180Z,7.78
2022-10-08T05:10:50.825Z,9.13
2022-10-08T05:15:54.515Z,9.18
2022-10-08T05:21:02.901Z,6.90
2022-10-08T05:26:13.919Z,9.65
2022-10-08T05:31:17.912Z,8.43
2022-10-08T05:36:24.417Z,8.85
2022-10-08T05:41:29.670Z,9.38
2022-10-08T05:46:34.498Z,8.48
2022-10-08T05:51:39.259Z,7.70
2022-10-08T05:56:42.485Z,7.40
2022-10-08T06:01:45.749Z,8.35
2022-10-08T06:06:50.537Z,9.82
2022-10-08T06:11:53.865Z,10.98
2022-10-08T06:16:57.142Z,8.55
2022-10-08T06:22:02.119Z,7.70
2022-10-08T06:27:05.557Z,9.35
2022-10-08T06:32:09.053Z,7.85
2022-10-08T06:37:13.618Z,7.22
2022-10-08T06:42:16.831Z,9.35
2022-10-08T06:47:20.751Z,7.82
2022-10-08T06:52:25.610Z,8.48
2022-10-08T06:57:29.233Z,8.43
2022-10-08T07:02:32.875Z,7.68
2022-10-08T07:07:37.653Z,7.82
2022-10-08T07:12:40.891Z,7.85
2022-10-08T07:17:44.575Z,8.77
2022-10-08T07:22:49.888Z,9.40
2022-10-08T07:27:53.307Z,8.02
2022-10-08T07:32:56.572Z,7.57
2022-10-08T07:38:01.322Z,9.45
2022-10-08T07:43:05.127Z,7.43
2022-10-08T07:48:09.094Z,8.93
2022-10-08T07:53:13.817Z,9.38
2022-10-08T07:58:17.154Z,7.93
2022-10-08T08:03:20.455Z,9.30
2022-10-08T08:08:25.123Z,9.25
2022-10-08T08:13:34.457Z,10.18
2022-10-08T08:18:41.645Z,7.22
2022-10-08T08:23:48.231Z,9.40
2022-10-08T08:28:53.222Z,13.27
2022-10-08T08:33:57.947Z,8.15
2022-10-08T08:39:02.966Z,9.32
2022-10-08T08:44:11.607Z,9.93
2022-10-08T08:49:22.479Z,10.93
2022-10-08T08:54:27.434Z,10.35
2022-10-08T08:59:36.501Z,7.47
2022-10-08T09:04:45.334Z,7.43
2022-10-08T09:09:52.930Z,6.93
2022-10-08T09:14:58.989Z,9.45
2022-10-08T09:20:02.473Z,6.32
2022-10-08T09:25:12.063Z,7.47
2022-10-08T09:30:30.235Z,8.40
2022-10-08T09:35:35.429Z,7.60
2022-10-08T09:40:40.077Z,7.65
2022-10-08T09:45:45.430Z,10.02
2022-10-08T09:50:52.892Z,9.15
2022-10-08T09:56:01.584Z,9.48
2022-10-08T10:01:07.857Z,9.10
2022-10-08T10:06:11.138Z,10.07
2022-10-08T10:11:22.197Z,9.32
2022-10-08T10:16:30.472Z,6.70
2022-10-08T10:21:40.427Z,8.88
2022-10-08T10:26:46.442Z,8.00
2022-10-08T10:31:53.686Z,9.02
2022-10-08T10:36:58.668Z,8.55
2022-10-08T10:42:11.544Z,6.85
2022-10-08T10:47:15.703Z,7.53
2022-10-08T10:52:41.605Z,7.68
2022-10-08T10:58:05.068Z,6.20
2022-10-08T11:03:15.541Z,8.82
2022-10-08T11:08:32.036Z,7.22
2022-10-08T11:14:02.869Z,9.50
2022-10-08T11:19:11.498Z,9.50
2022-10-08T11:24:47.676Z,9.05
2022-10-08T11:30:01.344Z,8.63
2022-10-08T11:35:22.907Z,9.88
2022-10-08T11:40:31.528Z,10.70
2022-10-08T11:45:38.442Z,10.02
2022-10-08T11:50:41.647Z,8.38
2022-10-08T11:55:52.030Z,7.43
2022-10-08T12:01:04.203Z,9.82
2022-10-08T12:06:24.554Z,9.82
2022-10-08T12:11:53.001Z,9.13
2022-10-08T12:17:12.109Z,8.63
2022-10-08T12:22:44.027Z,8.88
2022-10-08T12:27:47.261Z,8.13
2022-10-08T12:32:57.407Z,8.05
2022-10-08T12:38:28.400Z,9.02
2022-10-08T12:43:43.718Z,6.60
2022-10-08T12:48:52.728Z,8.73
2022-10-08T12:53:58.349Z,10.73
2022-10-08T12:59:05.858Z,9.43
2022-10-08T13:04:17.923Z,7.65
2022-10-08T13:09:27.498Z,9.75
2022-10-08T13:14:32.990Z,8.60
2022-10-08T13:19:39.845Z,7.88
2022-10-08T13:24:44.574Z,8.00
2022-10-08T13:29:47.897Z,11.23
2022-10-08T13:34:55.728Z,10.23
2022-10-08T13:40:01.153Z,7.97
2022-10-08T13:45:06.364Z,9.35
2022-10-08T13:50:11.504Z,8.48
2022-10-08T13:55:23.814Z,8.23
2022-10-08T14:00:28.503Z,7.18
2022-10-08T14:05:38.405Z,9.80
2022-10-08T14:10:41.894Z,6.60
2022-10-08T14:15:45.187Z,8.18
2022-10-08T14:20:52.275Z,4.70
2022-10-08T14:25:55.543Z,4.30
2022-10-08T14:30:58.842Z,3.65
2022-10-08T14:36:03.783Z,2.25
2022-10-08T14:41:07.736Z,4.75
2022-10-08T14:46:11.278Z,2.72
2022-10-08T14:51:16.188Z,3.42
2022-10-08T14:56:19.549Z,4.65
2022-10-08T15:01:23.147Z,9.32
2022-10-08T15:06:27.835Z,7.03
2022-10-08T15:11:31.100Z,6.95
2022-10-08T15:16:34.375Z,8.00
2022-10-08T15:21:39.119Z,7.45
2022-10-08T15:26:42.453Z,9.65
2022-10-08T15:31:45.779Z,6.93
2022-10-08T15:36:50.477Z,7.72
2022-10-08T15:41:54.453Z,7.68
2022-10-08T15:47:01.575Z,8.23
2022-10-08T15:52:08.329Z,8.35
2022-10-08T15:57:13.436Z,6.72
2022-10-08T16:02:18.076Z,9.20
2022-10-08T16:07:23.255Z,10.13
2022-10-08T16:12:26.723Z,10.27
2022-10-08T16:17:30.642Z,9.82
2022-10-08T16:22:35.299Z,8.57
2022-10-08T16:27:38.566Z,11.25
2022-10-08T16:32:41.919Z,8.38
2022-10-08T16:37:47.178Z,8.95
2022-10-08T16:42:50.700Z,10.70
2022-10-08T16:47:54.123Z,10.27
2022-10-08T16:52:58.801Z,11.55
2022-10-08T16:58:02.059Z,8.18
2022-10-08T17:03:05.585Z,10.35
2022-10-08T17:08:10.277Z,13.70
2022-10-08T17:13:13.716Z,12.52
2022-10-08T17:18:17.295Z,11.40
2022-10-08T17:23:22.840Z,12.15
2022-10-08T17:28:29.599Z,12.25
2022-10-08T17:33:35.976Z,10.93
2022-10-08T17:38:43.442Z,13.82
2022-10-08T17:43:48.242Z,12.43
2022-10-08T17:48:53.285Z,12.70
2022-10-08T17:53:59.990Z,13.27
2022-10-08T17:59:04.312Z,12.82
2022-10-08T18:04:10.530Z,8.70
2022-10-08T18:09:18.706Z,9.05
2022-10-08T18:14:23.590Z,7.45
2022-10-08T18:19:27.947Z,6.63
2022-10-08T18:24:35.115Z,7.82
2022-10-08T18:29:38.536Z,4.75
2022-10-08T18:34:41.977Z,6.47
2022-10-08T18:39:47.089Z,3.75
2022-10-08T18:44:50.861Z,6.05
2022-10-08T18:49:54.511Z,5.70
2022-10-08T18:55:01.654Z,6.13
2022-10-08T19:00:07.832Z,4.00
2022-10-08T19:05:11.418Z,8.27
2022-10-08T19:10:16.510Z,5.07
2022-10-08T19:15:20.220Z,5.70
2022-10-08T19:20:23.782Z,7.72
2022-10-08T19:25:30.056Z,8.13
2022-10-08T19:30:35.890Z,7.80
2022-10-08T19:35:42.346Z,7.00
2022-10-08T19:40:49.285Z,6.20
2022-10-08T19:45:53.596Z,5.65
2022-10-08T19:50:58.526Z,8.82
2022-10-08T19:56:05.980Z,7.03
2022-10-08T20:01:11.848Z,4.60
2022-10-08T20:06:21.696Z,5.53
2022-10-08T20:11:31.803Z,5.50
2022-10-08T20:16:36.992Z,4.45
2022-10-08T20:21:40.438Z,7.55
2022-10-08T20:26:46.515Z,5.85
2022-10-08T20:31:54.208Z,4.75
2022-10-08T20:36:58.041Z,5.07
2022-10-08T20:42:02.842Z,4.10
2022-10-08T20:47:06.095Z,4.32
2022-10-08T20:52:09.300Z,4.68
2022-10-08T20:57:13.954Z,5.47
2022-10-08T21:02:19.782Z,5.03
2022-10-08T21:07:23.243Z,3.72
2022-10-08T21:12:27.841Z,3.50
2022-10-08T21:17:31.137Z,3.35
2022-10-08T21:22:34.491Z,4.43
2022-10-08T21:27:39.086Z,4.97
2022-10-08T21:32:42.356Z,3.53
2022-10-08T21:37:45.596Z,3.60
2022-10-08T21:42:50.698Z,2.72
2022-10-08T21:47:54.200Z,3.50
2022-10-08T21:52:57.480Z,3.10
2022-10-08T21:58:02.110Z,4.75
2022-10-08T22:03:05.544Z,3.53
2022-10-08T22:08:08.786Z,3.72
2022-10-08T22:13:13.774Z,4.97
2022-10-08T22:18:17.011Z,3.45
2022-10-08T22:23:21.155Z,3.53
2022-10-08T22:28:26.818Z,3.88
2022-10-08T22:33:31.132Z,3.83
2022-10-08T22:38:35.847Z,3.00
2022-10-08T22:43:41.876Z,3.78
2022-10-08T22:48:45.710Z,4.47
2022-10-08T22:53:49.546Z,6.95
2022-10-08T22:58:54.674Z,2.15
2022-10-08T23:03:57.978Z,5.05
2022-10-08T23:09:03.016Z,4.75
2022-10-08T23:14:08.031Z,3.05
2022-10-08T23:19:12.843Z,2.83
2022-10-08T23:24:16.269Z,2.58
2022-10-08T23:29:20.991Z,4.18
2022-10-08T23:34:24.359Z,3.90
2022-10-08T23:39:27.714Z,4.13
2022-10-08T23:44:32.291Z,3.78
2022-10-08T23:49:35.593Z,2.72
2022-10-08T23:54:38.934Z,2.55
2022-10-08T23:59:43.805Z,2.97
